sensor_id;sensor_type;location;lat;lon;timestamp;pressure;altitude;pressure_sealevel;temperature;humidity
78671;BME280;68277;52.724;6.516;2024-03-29T00:01:15;99066.41;;;7.44;100.00
78671;BME280;68277;52.724;6.516;2024-03-29T00:03:41;99088.28;;;7.46;100.00
78671;BME280;68277;52.724;6.516;2024-03-29T00:06:07;99077.84;;;7.43;100.00
78671;BME280;68277;52.724;6.516;2024-03-29T00:08:32;99048.81;;;7.23;100.00
78671;BME280;68277;52.724;6.516;2024-03-29T00:10:58;99051.63;;;7.18;100.00
78671;BME280;68277;52.724;6.516;2024-03-29T00:13:24;99057.50;;;7.25;100.00
78671;BME280;68277;52.724;6.516;2024-03-29T00:15:49;99072.88;;;7.35;100.00
78671;BME280;68277;52.724;6.516;2024-03-29T00:18:15;99104.94;;;7.46;100.00
78671;BME280;68277;52.724;6.516;2024-03-29T00:20:40;99084.16;;;7.39;100.00
78671;BME280;68277;52.724;6.516;2024-03-29T00:23:06;99077.41;;;7.32;100.00
78671;BME280;68277;52.724;6.516;2024-03-29T00:25:32;99086.19;;;7.31;100.00
78671;BME280;68277;52.724;6.516;2024-03-29T00:27:57;99062.88;;;7.22;100.00
78671;BME280;68277;52.724;6.516;2024-03-29T00:30:23;99094.88;;;7.33;100.00
78671;BME280;68277;52.724;6.516;2024-03-29T00:32:51;99065.91;;;7.11;100.00
78671;BME280;68277;52.724;6.516;2024-03-29T00:35:17;99089.16;;;7.22;100.00
78671;BME280;68277;52.724;6.516;2024-03-29T00:37:44;99077.25;;;7.12;100.00
78671;BME280;68277;52.724;6.516;2024-03-29T00:40:10;99105.56;;;7.30;100.00
78671;BME280;68277;52.724;6.516;2024-03-29T00:42:36;99083.31;;;7.14;100.00
78671;BME280;68277;52.724;6.516;2024-03-29T00:45:02;99089.56;;;7.11;100.00
78671;BME280;68277;52.724;6.516;2024-03-29T00:47:27;99086.94;;;7.11;100.00
78671;BME280;68277;52.724;6.516;2024-03-29T00:49:53;99071.59;;;6.99;100.00
78671;BME280;68277;52.724;6.516;2024-03-29T00:52:18;99058.91;;;6.87;100.00
78671;BME280;68277;52.724;6.516;2024-03-29T00:54:44;99101.34;;;7.01;100.00
78671;BME280;68277;52.724;6.516;2024-03-29T00:57:24;99098.06;;;6.95;100.00
78671;BME280;68277;52.724;6.516;2024-03-29T00:59:50;99112.72;;;7.02;100.00
78671;BME280;68277;52.724;6.516;2024-03-29T01:02:15;99102.50;;;6.93;100.00
78671;BME280;68277;52.724;6.516;2024-03-29T01:04:41;99108.44;;;6.99;100.00
78671;BME280;68277;52.724;6.516;2024-03-29T01:07:06;99063.00;;;6.69;100.00
78671;BME280;68277;52.724;6.516;2024-03-29T01:09:32;99070.00;;;6.70;100.00
78671;BME280;68277;52.724;6.516;2024-03-29T01:11:57;99087.97;;;6.82;100.00
78671;BME280;68277;52.724;6.516;2024-03-29T01:14:23;99134.31;;;7.10;100.00
78671;BME280;68277;52.724;6.516;2024-03-29T01:16:49;99111.94;;;6.98;100.00
78671;BME280;68277;52.724;6.516;2024-03-29T01:19:14;99095.63;;;6.88;100.00
78671;BME280;68277;52.724;6.516;2024-03-29T01:21:40;99111.94;;;6.98;100.00
78671;BME280;68277;52.724;6.516;2024-03-29T01:24:05;99094.69;;;6.91;100.00
78671;BME280;68277;52.724;6.516;2024-03-29T01:26:31;99074.94;;;6.79;100.00
78671;BME280;68277;52.724;6.516;2024-03-29T01:28:57;99070.72;;;6.74;100.00
78671;BME280;68277;52.724;6.516;2024-03-29T01:31:23;99128.38;;;7.05;100.00
78671;BME280;68277;52.724;6.516;2024-03-29T01:33:49;99100.91;;;6.88;100.00
78671;BME280;68277;52.724;6.516;2024-03-29T01:36:15;99155.84;;;7.21;100.00
78671;BME280;68277;52.724;6.516;2024-03-29T01:38:40;99081.06;;;6.80;100.00
78671;BME280;68277;52.724;6.516;2024-03-29T01:41:06;99090.59;;;6.82;100.00
78671;BME280;68277;52.724;6.516;2024-03-29T01:43:32;99136.97;;;7.10;100.00
78671;BME280;68277;52.724;6.516;2024-03-29T01:45:58;99069.91;;;6.73;100.00
78671;BME280;68277;52.724;6.516;2024-03-29T01:48:24;99127.47;;;7.06;100.00
78671;BME280;68277;52.724;6.516;2024-03-29T01:50:51;99137.66;;;7.15;100.00
78671;BME280;68277;52.724;6.516;2024-03-29T01:53:19;99108.53;;;6.96;100.00
78671;BME280;68277;52.724;6.516;2024-03-29T01:55:45;99058.88;;;6.62;100.00
78671;BME280;68277;52.724;6.516;2024-03-29T01:58:11;99100.19;;;6.83;100.00
78671;BME280;68277;52.724;6.516;2024-03-29T02:00:41;99033.94;;;6.49;100.00
78671;BME280;68277;52.724;6.516;2024-03-29T02:03:08;99076.06;;;6.72;100.00
78671;BME280;68277;52.724;6.516;2024-03-29T02:05:40;99076.06;;;6.72;100.00
78671;BME280;68277;52.724;6.516;2024-03-29T02:08:07;99112.28;;;6.89;100.00
78671;BME280;68277;52.724;6.516;2024-03-29T02:10:34;99105.34;;;6.86;100.00
78671;BME280;68277;52.724;6.516;2024-03-29T02:12:59;99090.81;;;6.76;100.00
78671;BME280;68277;52.724;6.516;2024-03-29T02:15:25;99083.53;;;6.84;100.00
78671;BME280;68277;52.724;6.516;2024-03-29T02:17:51;99059.59;;;6.67;100.00
78671;BME280;68277;52.724;6.516;2024-03-29T02:20:16;99090.59;;;6.82;100.00
78671;BME280;68277;52.724;6.516;2024-03-29T02:22:49;99092.03;;;6.91;100.00
78671;BME280;68277;52.724;6.516;2024-03-29T02:25:16;99055.66;;;6.79;100.00
78671;BME280;68277;52.724;6.516;2024-03-29T02:27:42;99025.69;;;6.60;100.00
78671;BME280;68277;52.724;6.516;2024-03-29T02:30:08;99084.06;;;6.94;100.00
78671;BME280;68277;52.724;6.516;2024-03-29T02:32:34;99045.81;;;6.61;100.00
78671;BME280;68277;52.724;6.516;2024-03-29T02:34:59;99053.84;;;6.81;100.00
78671;BME280;68277;52.724;6.516;2024-03-29T02:37:25;99054.13;;;6.73;100.00
78671;BME280;68277;52.724;6.516;2024-03-29T02:39:50;99058.53;;;6.73;100.00
78671;BME280;68277;52.724;6.516;2024-03-29T02:42:16;99057.88;;;6.66;100.00
78671;BME280;68277;52.724;6.516;2024-03-29T02:44:42;99057.66;;;6.72;100.00
78671;BME280;68277;52.724;6.516;2024-03-29T02:47:08;99065.47;;;6.74;100.00
78671;BME280;68277;52.724;6.516;2024-03-29T02:49:33;99090.59;;;6.82;100.00
78671;BME280;68277;52.724;6.516;2024-03-29T02:51:59;99098.28;;;6.88;100.00
78671;BME280;68277;52.724;6.516;2024-03-29T02:54:25;99079.50;;;6.74;100.00
78671;BME280;68277;52.724;6.516;2024-03-29T02:56:50;99069.47;;;6.61;100.00
78671;BME280;68277;52.724;6.516;2024-03-29T02:59:16;99108.25;;;6.79;100.00
78671;BME280;68277;52.724;6.516;2024-03-29T03:01:42;99123.84;;;6.83;100.00
78671;BME280;68277;52.724;6.516;2024-03-29T03:04:07;99098.31;;;6.62;100.00
78671;BME280;68277;52.724;6.516;2024-03-29T03:06:33;99075.84;;;6.54;100.00
78671;BME280;68277;52.724;6.516;2024-03-29T03:08:58;99060.06;;;6.54;100.00
78671;BME280;68277;52.724;6.516;2024-03-29T03:11:42;99108.84;;;6.87;100.00
78671;BME280;68277;52.724;6.516;2024-03-29T03:14:07;99084.00;;;6.71;100.00
78671;BME280;68277;52.724;6.516;2024-03-29T03:16:33;99110.63;;;6.86;100.00
78671;BME280;68277;52.724;6.516;2024-03-29T03:18:58;99094.19;;;6.80;100.00
78671;BME280;68277;52.724;6.516;2024-03-29T03:21:25;99101.13;;;6.82;100.00
78671;BME280;68277;52.724;6.516;2024-03-29T03:23:50;99087.19;;;6.80;100.00
78671;BME280;68277;52.724;6.516;2024-03-29T03:26:16;99039.16;;;6.51;100.00
78671;BME280;68277;52.724;6.516;2024-03-29T03:28:41;99050.28;;;6.57;100.00
78671;BME280;68277;52.724;6.516;2024-03-29T03:31:07;99081.09;;;6.78;100.00
78671;BME280;68277;52.724;6.516;2024-03-29T03:33:32;99098.44;;;6.84;100.00
78671;BME280;68277;52.724;6.516;2024-03-29T03:35:58;99097.69;;;6.80;100.00
78671;BME280;68277;52.724;6.516;2024-03-29T03:38:23;99092.44;;;6.80;100.00
78671;BME280;68277;52.724;6.516;2024-03-29T03:40:49;99121.56;;;6.99;100.00
78671;BME280;68277;52.724;6.516;2024-03-29T03:43:15;99101.84;;;6.87;100.00
78671;BME280;68277;52.724;6.516;2024-03-29T03:45:41;99084.66;;;6.77;100.00
78671;BME280;68277;52.724;6.516;2024-03-29T03:48:08;99133.59;;;7.06;100.00
78671;BME280;68277;52.724;6.516;2024-03-29T03:50:35;99115.63;;;6.94;100.00
78671;BME280;68277;52.724;6.516;2024-03-29T03:53:01;99134.97;;;7.16;100.00
78671;BME280;68277;52.724;6.516;2024-03-29T03:55:27;99114.31;;;7.06;100.00
78671;BME280;68277;52.724;6.516;2024-03-29T03:57:53;99143.69;;;7.18;100.00
78671;BME280;68277;52.724;6.516;2024-03-29T04:00:19;99079.97;;;6.85;100.00
78671;BME280;68277;52.724;6.516;2024-03-29T04:02:51;99126.44;;;7.10;100.00
78671;BME280;68277;52.724;6.516;2024-03-29T04:05:19;99099.06;;;6.90;100.00
78671;BME280;68277;52.724;6.516;2024-03-29T04:07:44;99117.16;;;7.00;100.00
78671;BME280;68277;52.724;6.516;2024-03-29T04:10:10;99155.75;;;7.24;100.00
78671;BME280;68277;52.724;6.516;2024-03-29T04:12:36;99076.44;;;6.86;100.00
78671;BME280;68277;52.724;6.516;2024-03-29T04:15:02;99101.28;;;7.03;100.00
78671;BME280;68277;52.724;6.516;2024-03-29T04:17:29;99140.59;;;7.30;100.00
78671;BME280;68277;52.724;6.516;2024-03-29T04:19:58;99099.34;;;7.08;100.00
78671;BME280;68277;52.724;6.516;2024-03-29T04:22:24;99152.50;;;7.40;100.00
78671;BME280;68277;52.724;6.516;2024-03-29T04:24:51;99134.25;;;7.36;100.00
78671;BME280;68277;52.724;6.516;2024-03-29T04:27:16;99139.41;;;7.39;100.00
78671;BME280;68277;52.724;6.516;2024-03-29T04:29:42;99145.25;;;7.47;100.00
78671;BME280;68277;52.724;6.516;2024-03-29T04:32:09;99117.03;;;7.27;100.00
78671;BME280;68277;52.724;6.516;2024-03-29T04:34:35;99097.31;;;7.16;100.00
78671;BME280;68277;52.724;6.516;2024-03-29T04:37:01;99094.72;;;7.14;100.00
78671;BME280;68277;52.724;6.516;2024-03-29T04:39:27;99133.97;;;7.43;100.00
78671;BME280;68277;52.724;6.516;2024-03-29T04:41:52;99145.31;;;7.45;100.00
78671;BME280;68277;52.724;6.516;2024-03-29T04:44:27;99100.47;;;7.25;100.00
78671;BME280;68277;52.724;6.516;2024-03-29T04:46:53;99122.59;;;7.43;100.00
78671;BME280;68277;52.724;6.516;2024-03-29T04:49:22;99099.47;;;7.28;100.00
78671;BME280;68277;52.724;6.516;2024-03-29T04:51:56;99152.06;;;7.52;100.00
78671;BME280;68277;52.724;6.516;2024-03-29T04:54:22;99155.56;;;7.53;100.00
78671;BME280;68277;52.724;6.516;2024-03-29T04:56:48;99083.19;;;7.18;100.00
78671;BME280;68277;52.724;6.516;2024-03-29T04:59:14;99131.00;;;7.52;100.00
78671;BME280;68277;52.724;6.516;2024-03-29T05:01:43;99117.06;;;7.50;100.00
78671;BME280;68277;52.724;6.516;2024-03-29T05:04:10;99091.25;;;7.37;100.00
78671;BME280;68277;52.724;6.516;2024-03-29T05:06:36;99125.56;;;7.57;100.00
78671;BME280;68277;52.724;6.516;2024-03-29T05:09:02;99114.13;;;7.58;100.00
78671;BME280;68277;52.724;6.516;2024-03-29T05:11:27;99148.63;;;7.74;100.00
78671;BME280;68277;52.724;6.516;2024-03-29T05:13:53;99119.34;;;7.59;100.00
78671;BME280;68277;52.724;6.516;2024-03-29T05:16:18;99144.34;;;7.71;100.00
78671;BME280;68277;52.724;6.516;2024-03-29T05:18:48;99156.34;;;7.78;100.00
78671;BME280;68277;52.724;6.516;2024-03-29T05:21:14;99104.69;;;7.52;100.00
78671;BME280;68277;52.724;6.516;2024-03-29T05:23:39;99105.72;;;7.48;100.00
78671;BME280;68277;52.724;6.516;2024-03-29T05:26:05;99107.38;;;7.51;100.00
78671;BME280;68277;52.724;6.516;2024-03-29T05:28:30;99094.25;;;7.49;100.00
78671;BME280;68277;52.724;6.516;2024-03-29T05:30:56;99116.78;;;7.58;100.00
78671;BME280;68277;52.724;6.516;2024-03-29T05:33:21;99142.31;;;7.78;100.00
78671;BME280;68277;52.724;6.516;2024-03-29T05:35:47;99140.34;;;7.84;100.00
78671;BME280;68277;52.724;6.516;2024-03-29T05:38:12;99100.91;;;7.59;100.00
78671;BME280;68277;52.724;6.516;2024-03-29T05:40:38;99135.41;;;7.75;100.00
78671;BME280;68277;52.724;6.516;2024-03-29T05:43:04;99114.75;;;7.65;100.00
78671;BME280;68277;52.724;6.516;2024-03-29T05:45:30;99142.97;;;7.84;100.00
78671;BME280;68277;52.724;6.516;2024-03-29T05:47:57;99163.63;;;7.95;100.00
78671;BME280;68277;52.724;6.516;2024-03-29T05:50:25;99161.06;;;7.93;100.00
78671;BME280;68277;52.724;6.516;2024-03-29T05:52:51;99106.69;;;7.69;100.00
78671;BME280;68277;52.724;6.516;2024-03-29T05:55:18;99139.19;;;7.91;100.00
78671;BME280;68277;52.724;6.516;2024-03-29T05:57:44;99164.19;;;8.03;100.00
78671;BME280;68277;52.724;6.516;2024-03-29T06:00:14;99134.66;;;7.72;100.00
78671;BME280;68277;52.724;6.516;2024-03-29T06:02:46;99136.94;;;7.81;100.00
78671;BME280;68277;52.724;6.516;2024-03-29T06:05:13;99135.00;;;7.86;100.00
78671;BME280;68277;52.724;6.516;2024-03-29T06:07:39;99146.41;;;7.86;100.00
78671;BME280;68277;52.724;6.516;2024-03-29T06:10:04;99166.50;;;7.89;100.00
78671;BME280;68277;52.724;6.516;2024-03-29T06:12:32;99154.31;;;7.86;100.00
78671;BME280;68277;52.724;6.516;2024-03-29T06:14:57;99169.75;;;7.95;100.00
78671;BME280;68277;52.724;6.516;2024-03-29T06:17:41;99149.22;;;7.82;100.00
78671;BME280;68277;52.724;6.516;2024-03-29T06:20:07;99189.88;;;7.96;100.00
78671;BME280;68277;52.724;6.516;2024-03-29T06:22:33;99179.66;;;7.89;100.00
78671;BME280;68277;52.724;6.516;2024-03-29T06:24:59;99191.69;;;7.96;100.00
78671;BME280;68277;52.724;6.516;2024-03-29T06:27:29;99200.94;;;8.06;100.00
78671;BME280;68277;52.724;6.516;2024-03-29T06:29:55;99200.03;;;8.07;100.00
78671;BME280;68277;52.724;6.516;2024-03-29T06:32:20;99165.53;;;7.91;100.00
78671;BME280;68277;52.724;6.516;2024-03-29T06:34:46;99188.97;;;7.97;100.00
78671;BME280;68277;52.724;6.516;2024-03-29T06:37:11;99183.97;;;7.91;100.00
78671;BME280;68277;52.724;6.516;2024-03-29T06:39:37;99157.44;;;7.73;100.00
78671;BME280;68277;52.724;6.516;2024-03-29T06:42:03;99198.09;;;7.89;100.00
78671;BME280;68277;52.724;6.516;2024-03-29T06:44:29;99192.25;;;7.81;100.00
78671;BME280;68277;52.724;6.516;2024-03-29T06:46:54;99216.53;;;7.89;100.00
78671;BME280;68277;52.724;6.516;2024-03-29T06:49:20;99213.25;;;7.82;100.00
78671;BME280;68277;52.724;6.516;2024-03-29T06:51:46;99171.72;;;7.42;100.00
78671;BME280;68277;52.724;6.516;2024-03-29T06:54:11;99180.44;;;7.44;100.00
78671;BME280;68277;52.724;6.516;2024-03-29T06:56:37;99212.97;;;7.67;100.00
78671;BME280;68277;52.724;6.516;2024-03-29T06:59:03;99179.78;;;7.38;100.00
78671;BME280;68277;52.724;6.516;2024-03-29T07:01:29;99219.53;;;7.55;100.00
78671;BME280;68277;52.724;6.516;2024-03-29T07:03:54;99186.88;;;7.36;100.00
78671;BME280;68277;52.724;6.516;2024-03-29T07:06:21;99206.75;;;7.44;100.00
78671;BME280;68277;52.724;6.516;2024-03-29T07:08:47;99224.34;;;7.44;100.00
78671;BME280;68277;52.724;6.516;2024-03-29T07:11:13;99247.72;;;7.51;100.00
78671;BME280;68277;52.724;6.516;2024-03-29T07:13:41;99233.84;;;7.48;100.00
78671;BME280;68277;52.724;6.516;2024-03-29T07:16:07;99199.03;;;7.15;100.00
78671;BME280;68277;52.724;6.516;2024-03-29T07:18:32;99220.56;;;7.26;100.00
78671;BME280;68277;52.724;6.516;2024-03-29T07:20:58;99244.53;;;7.43;100.00
78671;BME280;68277;52.724;6.516;2024-03-29T07:23:24;99212.59;;;7.28;100.00
78671;BME280;68277;52.724;6.516;2024-03-29T07:26:05;99239.97;;;7.48;100.00
78671;BME280;68277;52.724;6.516;2024-03-29T07:28:31;99251.13;;;7.55;100.00
78671;BME280;68277;52.724;6.516;2024-03-29T07:31:04;99217.34;;;7.43;100.00
78671;BME280;68277;52.724;6.516;2024-03-29T07:33:31;99212.19;;;7.40;100.00
78671;BME280;68277;52.724;6.516;2024-03-29T07:35:57;99192.31;;;7.31;100.00
78671;BME280;68277;52.724;6.516;2024-03-29T07:38:22;99248.22;;;7.63;100.00
78671;BME280;68277;52.724;6.516;2024-03-29T07:40:49;99203.47;;;7.38;100.00
78671;BME280;68277;52.724;6.516;2024-03-29T07:43:15;99183.63;;;7.29;100.00
78671;BME280;68277;52.724;6.516;2024-03-29T07:45:41;99230.16;;;7.52;100.00
78671;BME280;68277;52.724;6.516;2024-03-29T07:48:12;99204.28;;;7.40;100.00
78671;BME280;68277;52.724;6.516;2024-03-29T07:50:41;99213.75;;;7.45;100.00
78671;BME280;68277;52.724;6.516;2024-03-29T07:53:07;99209.78;;;7.34;100.00
78671;BME280;68277;52.724;6.516;2024-03-29T07:55:32;99242.47;;;7.51;100.00
78671;BME280;68277;52.724;6.516;2024-03-29T07:57:58;99230.34;;;7.47;100.00
78671;BME280;68277;52.724;6.516;2024-03-29T08:00:25;99247.72;;;7.51;100.00
78671;BME280;68277;52.724;6.516;2024-03-29T08:02:51;99247.88;;;7.47;100.00
78671;BME280;68277;52.724;6.516;2024-03-29T08:05:20;99222.06;;;7.33;100.00
78671;BME280;68277;52.724;6.516;2024-03-29T08:07:45;99253.97;;;7.49;100.00
78671;BME280;68277;52.724;6.516;2024-03-29T08:10:11;99239.47;;;7.37;100.00
78671;BME280;68277;52.724;6.516;2024-03-29T08:12:36;99241.34;;;7.34;100.00
78671;BME280;68277;52.724;6.516;2024-03-29T08:15:03;99259.44;;;7.43;100.00
78671;BME280;68277;52.724;6.516;2024-03-29T08:17:29;99288.78;;;7.57;100.00
78671;BME280;68277;52.724;6.516;2024-03-29T08:19:54;99280.88;;;7.57;100.00
78671;BME280;68277;52.724;6.516;2024-03-29T08:22:20;99231.00;;;7.29;100.00
78671;BME280;68277;52.724;6.516;2024-03-29T08:24:46;99265.16;;;7.55;100.00
78671;BME280;68277;52.724;6.516;2024-03-29T08:27:11;99236.81;;;7.37;100.00
78671;BME280;68277;52.724;6.516;2024-03-29T08:29:37;99268.53;;;7.59;100.00
78671;BME280;68277;52.724;6.516;2024-03-29T08:32:03;99237.09;;;7.54;100.00
78671;BME280;68277;52.724;6.516;2024-03-29T08:34:29;99251.22;;;7.77;100.00
78671;BME280;68277;52.724;6.516;2024-03-29T08:37:01;99256.59;;;7.97;100.00
78671;BME280;68277;52.724;6.516;2024-03-29T08:39:31;99250.94;;;8.07;100.00
78671;BME280;68277;52.724;6.516;2024-03-29T08:42:00;99258.63;;;8.13;100.00
78671;BME280;68277;52.724;6.516;2024-03-29T08:44:31;99279.03;;;8.32;100.00
78671;BME280;68277;52.724;6.516;2024-03-29T08:46:56;99264.50;;;8.20;100.00
78671;BME280;68277;52.724;6.516;2024-03-29T08:49:24;99286.81;;;8.35;100.00
78671;BME280;68277;52.724;6.516;2024-03-29T08:51:50;99260.38;;;8.13;100.00
78671;BME280;68277;52.724;6.516;2024-03-29T08:54:15;99291.19;;;8.36;100.00
78671;BME280;68277;52.724;6.516;2024-03-29T08:56:41;99251.66;;;8.12;100.00
78671;BME280;68277;52.724;6.516;2024-03-29T08:59:06;99294.56;;;8.39;100.00
78671;BME280;68277;52.724;6.516;2024-03-29T09:01:45;99291.31;;;8.33;100.00
78671;BME280;68277;52.724;6.516;2024-03-29T09:04:13;99283.91;;;8.42;100.00
78671;BME280;68277;52.724;6.516;2024-03-29T09:06:40;99263.31;;;8.52;100.00
78671;BME280;68277;52.724;6.516;2024-03-29T09:09:06;99250.53;;;8.64;100.00
78671;BME280;68277;52.724;6.516;2024-03-29T09:11:31;99267.78;;;8.93;100.00
78671;BME280;68277;52.724;6.516;2024-03-29T09:13:59;99269.94;;;9.05;100.00
78671;BME280;68277;52.724;6.516;2024-03-29T09:16:26;99307.63;;;9.50;100.00
78671;BME280;68277;52.724;6.516;2024-03-29T09:18:54;99263.25;;;10.17;100.00
78671;BME280;68277;52.724;6.516;2024-03-29T09:21:20;99279.25;;;11.59;100.00
78671;BME280;68277;52.724;6.516;2024-03-29T09:23:46;99270.22;;;11.80;100.00
78671;BME280;68277;52.724;6.516;2024-03-29T09:26:11;99261.69;;;11.75;100.00
78671;BME280;68277;52.724;6.516;2024-03-29T09:28:39;99224.69;;;11.89;100.00
78671;BME280;68277;52.724;6.516;2024-03-29T09:31:05;99266.72;;;13.08;100.00
78671;BME280;68277;52.724;6.516;2024-03-29T09:33:31;99257.94;;;15.06;100.00
78671;BME280;68277;52.724;6.516;2024-03-29T09:35:57;99226.69;;;15.35;100.00
78671;BME280;68277;52.724;6.516;2024-03-29T09:38:27;99262.88;;;14.71;100.00
78671;BME280;68277;52.724;6.516;2024-03-29T09:41:15;99267.31;;;13.13;100.00
78671;BME280;68277;52.724;6.516;2024-03-29T09:43:42;99264.31;;;12.41;100.00
78671;BME280;68277;52.724;6.516;2024-03-29T09:46:10;99286.31;;;12.10;100.00
78671;BME280;68277;52.724;6.516;2024-03-29T09:48:37;99285.25;;;11.97;100.00
78671;BME280;68277;52.724;6.516;2024-03-29T09:51:07;99276.19;;;11.68;100.00
78671;BME280;68277;52.724;6.516;2024-03-29T09:53:37;99272.53;;;11.52;100.00
78671;BME280;68277;52.724;6.516;2024-03-29T09:56:06;99239.28;;;11.29;100.00
78671;BME280;68277;52.724;6.516;2024-03-29T09:58:33;99178.38;;;11.12;100.00
78671;BME280;68277;52.724;6.516;2024-03-29T10:00:59;99261.31;;;11.64;100.00
78671;BME280;68277;52.724;6.516;2024-03-29T10:03:25;99244.41;;;11.49;100.00
78671;BME280;68277;52.724;6.516;2024-03-29T10:05:59;99285.25;;;11.97;100.00
78671;BME280;68277;52.724;6.516;2024-03-29T10:08:28;99225.47;;;11.57;100.00
78671;BME280;68277;52.724;6.516;2024-03-29T10:10:58;99279.50;;;11.89;100.00
78671;BME280;68277;52.724;6.516;2024-03-29T10:13:24;99288.47;;;11.86;100.00
78671;BME280;68277;52.724;6.516;2024-03-29T10:15:54;99280.38;;;11.89;100.00
78671;BME280;68277;52.724;6.516;2024-03-29T10:18:30;99304.34;;;12.03;100.00
78671;BME280;68277;52.724;6.516;2024-03-29T10:21:03;99281.50;;;12.01;100.00
78671;BME280;68277;52.724;6.516;2024-03-29T10:23:30;99303.00;;;12.12;100.00
78671;BME280;68277;52.724;6.516;2024-03-29T10:25:56;99273.47;;;12.02;100.00
78671;BME280;68277;52.724;6.516;2024-03-29T10:28:22;99318.06;;;12.11;100.00
78671;BME280;68277;52.724;6.516;2024-03-29T10:30:49;99292.66;;;11.73;100.00
78671;BME280;68277;52.724;6.516;2024-03-29T10:33:15;99323.69;;;11.88;100.00
78671;BME280;68277;52.724;6.516;2024-03-29T10:35:49;99273.78;;;11.62;100.00
78671;BME280;68277;52.724;6.516;2024-03-29T10:38:14;99293.13;;;11.64;100.00
78671;BME280;68277;52.724;6.516;2024-03-29T10:40:41;99312.31;;;11.86;100.00
78671;BME280;68277;52.724;6.516;2024-03-29T10:43:10;99274.00;;;12.09;100.00
78671;BME280;68277;52.724;6.516;2024-03-29T10:45:42;99306.28;;;12.81;100.00
78671;BME280;68277;52.724;6.516;2024-03-29T10:48:09;99306.56;;;13.23;100.00
78671;BME280;68277;52.724;6.516;2024-03-29T10:50:36;99264.72;;;13.27;100.00
78671;BME280;68277;52.724;6.516;2024-03-29T10:53:02;99282.66;;;13.23;100.00
78671;BME280;68277;52.724;6.516;2024-03-29T10:55:35;99287.69;;;13.28;100.00
78671;BME280;68277;52.724;6.516;2024-03-29T10:58:03;99303.59;;;13.43;100.00
78671;BME280;68277;52.724;6.516;2024-03-29T11:00:32;99307.44;;;13.53;100.00
78671;BME280;68277;52.724;6.516;2024-03-29T11:06:06;99307.41;;;13.83;100.00
78671;BME280;68277;52.724;6.516;2024-03-29T11:08:33;99268.75;;;13.78;100.00
78671;BME280;68277;52.724;6.516;2024-03-29T11:11:04;99286.66;;;13.60;100.00
78671;BME280;68277;52.724;6.516;2024-03-29T11:16:11;99256.69;;;12.97;100.00
78671;BME280;68277;52.724;6.516;2024-03-29T11:18:40;99273.66;;;13.10;100.00
78671;BME280;68277;52.724;6.516;2024-03-29T11:21:06;99306.94;;;13.47;100.00
78671;BME280;68277;52.724;6.516;2024-03-29T11:23:35;99265.66;;;13.55;99.62
78671;BME280;68277;52.724;6.516;2024-03-29T11:26:01;99319.50;;;13.89;100.00
78671;BME280;68277;52.724;6.516;2024-03-29T11:28:29;99320.59;;;13.25;100.00
78671;BME280;68277;52.724;6.516;2024-03-29T11:31:04;99330.56;;;13.06;100.00
78671;BME280;68277;52.724;6.516;2024-03-29T11:33:31;99332.31;;;12.90;100.00
78671;BME280;68277;52.724;6.516;2024-03-29T11:36:18;99313.19;;;12.68;100.00
78671;BME280;68277;52.724;6.516;2024-03-29T11:38:53;99342.59;;;12.96;100.00
78671;BME280;68277;52.724;6.516;2024-03-29T11:41:20;99318.63;;;13.13;100.00
78671;BME280;68277;52.724;6.516;2024-03-29T11:43:50;99356.09;;;13.69;100.00
78671;BME280;68277;52.724;6.516;2024-03-29T11:46:17;99300.28;;;13.84;99.89
78671;BME280;68277;52.724;6.516;2024-03-29T11:48:43;99304.31;;;14.05;98.57
78671;BME280;68277;52.724;6.516;2024-03-29T11:51:13;99289.19;;;13.91;95.00
78671;BME280;68277;52.724;6.516;2024-03-29T11:53:42;99335.59;;;14.01;98.57
78671;BME280;68277;52.724;6.516;2024-03-29T11:56:09;99324.72;;;14.04;97.53
78671;BME280;68277;52.724;6.516;2024-03-29T11:58:37;99331.94;;;14.02;96.97
78671;BME280;68277;52.724;6.516;2024-03-29T12:01:04;99329.22;;;14.18;97.73
78671;BME280;68277;52.724;6.516;2024-03-29T12:03:31;99297.94;;;14.07;93.08
78671;BME280;68277;52.724;6.516;2024-03-29T12:05:59;99317.03;;;14.00;95.03
78671;BME280;68277;52.724;6.516;2024-03-29T12:08:34;99308.47;;;14.38;96.44
78671;BME280;68277;52.724;6.516;2024-03-29T12:11:01;99310.91;;;14.56;94.86
78671;BME280;68277;52.724;6.516;2024-03-29T12:13:28;99312.78;;;14.82;93.11
78671;BME280;68277;52.724;6.516;2024-03-29T12:15:54;99337.41;;;14.99;94.92
78671;BME280;68277;52.724;6.516;2024-03-29T12:18:21;99322.59;;;14.81;98.35
78671;BME280;68277;52.724;6.516;2024-03-29T12:20:48;99260.25;;;14.01;96.09
78671;BME280;68277;52.724;6.516;2024-03-29T12:23:16;99317.75;;;13.88;98.56
78671;BME280;68277;52.724;6.516;2024-03-29T12:25:42;99330.69;;;13.80;96.32
78671;BME280;68277;52.724;6.516;2024-03-29T12:28:10;99330.44;;;13.98;100.00
78671;BME280;68277;52.724;6.516;2024-03-29T12:30:35;99338.91;;;14.19;98.91
78671;BME280;68277;52.724;6.516;2024-03-29T12:33:12;99322.53;;;13.97;95.98
78671;BME280;68277;52.724;6.516;2024-03-29T12:35:48;99363.66;;;13.91;91.31
78671;BME280;68277;52.724;6.516;2024-03-29T12:38:16;99358.66;;;13.71;93.93
78671;BME280;68277;52.724;6.516;2024-03-29T12:40:43;99331.03;;;13.44;97.83
78671;BME280;68277;52.724;6.516;2024-03-29T12:43:10;99384.25;;;13.58;98.77
78671;BME280;68277;52.724;6.516;2024-03-29T12:45:38;99314.19;;;13.14;100.00
78671;BME280;68277;52.724;6.516;2024-03-29T12:48:11;99385.22;;;13.41;98.99
78671;BME280;68277;52.724;6.516;2024-03-29T12:50:40;99385.56;;;13.20;100.00
78671;BME280;68277;52.724;6.516;2024-03-29T12:53:07;99382.16;;;13.00;100.00
78671;BME280;68277;52.724;6.516;2024-03-29T12:55:33;99305.56;;;12.46;100.00
78671;BME280;68277;52.724;6.516;2024-03-29T12:58:02;99375.03;;;12.70;100.00
78671;BME280;68277;52.724;6.516;2024-03-29T13:00:30;99366.91;;;12.73;100.00
78671;BME280;68277;52.724;6.516;2024-03-29T13:02:56;99389.53;;;12.95;100.00